sensor_id;sensor_type;location;lat;lon;timestamp;P1;durP1;ratioP1;P2;durP2;ratioP2
83827;SDS011;74656;48.870;12.562;2023-12-20T00:01:19;15.13;;;9.63;;
83827;SDS011;74656;48.870;12.562;2023-12-20T00:04:20;11.38;;;8.52;;
83827;SDS011;74656;48.870;12.562;2023-12-20T00:07:21;13.90;;;8.77;;
83827;SDS011;74656;48.870;12.562;2023-12-20T00:10:22;11.35;;;8.18;;
83827;SDS011;74656;48.870;12.562;2023-12-20T00:13:22;12.35;;;7.82;;
83827;SDS011;74656;48.870;12.562;2023-12-20T00:16:23;11.40;;;7.38;;
83827;SDS011;74656;48.870;12.562;2023-12-20T00:19:24;10.23;;;7.55;;
83827;SDS011;74656;48.870;12.562;2023-12-20T00:22:25;10.30;;;7.57;;
83827;SDS011;74656;48.870;12.562;2023-12-20T00:25:26;9.80;;;7.55;;
83827;SDS011;74656;48.870;12.562;2023-12-20T00:28:27;9.52;;;7.07;;
83827;SDS011;74656;48.870;12.562;2023-12-20T00:31:28;9.63;;;7.28;;
83827;SDS011;74656;48.870;12.562;2023-12-20T00:34:29;9.57;;;6.95;;
83827;SDS011;74656;48.870;12.562;2023-12-20T00:37:30;10.23;;;7.65;;
83827;SDS011;74656;48.870;12.562;2023-12-20T00:40:31;9.30;;;7.63;;
83827;SDS011;74656;48.870;12.562;2023-12-20T00:43:32;10.48;;;7.07;;
83827;SDS011;74656;48.870;12.562;2023-12-20T00:46:33;9.30;;;6.85;;
83827;SDS011;74656;48.870;12.562;2023-12-20T00:49:34;9.30;;;6.60;;
83827;SDS011;74656;48.870;12.562;2023-12-20T00:52:35;9.52;;;6.70;;
83827;SDS011;74656;48.870;12.562;2023-12-20T00:55:36;8.73;;;6.40;;
83827;SDS011;74656;48.870;12.562;2023-12-20T00:58:37;11.80;;;6.80;;
83827;SDS011;74656;48.870;12.562;2023-12-20T01:01:38;10.32;;;6.38;;
83827;SDS011;74656;48.870;12.562;2023-12-20T01:04:39;10.88;;;7.80;;
83827;SDS011;74656;48.870;12.562;2023-12-20T01:07:40;12.52;;;7.70;;
83827;SDS011;74656;48.870;12.562;2023-12-20T01:10:40;10.50;;;8.20;;
83827;SDS011;74656;48.870;12.562;2023-12-20T01:13:41;9.63;;;6.53;;
83827;SDS011;74656;48.870;12.562;2023-12-20T01:16:42;10.73;;;7.40;;
83827;SDS011;74656;48.870;12.562;2023-12-20T01:19:43;9.43;;;6.88;;
83827;SDS011;74656;48.870;12.562;2023-12-20T01:22:44;11.15;;;7.32;;
83827;SDS011;74656;48.870;12.562;2023-12-20T01:25:45;10.00;;;7.35;;
83827;SDS011;74656;48.870;12.562;2023-12-20T01:28:46;11.50;;;7.05;;
83827;SDS011;74656;48.870;12.562;2023-12-20T01:31:47;10.98;;;7.05;;
83827;SDS011;74656;48.870;12.562;2023-12-20T01:34:48;9.52;;;6.97;;
83827;SDS011;74656;48.870;12.562;2023-12-20T01:37:49;11.70;;;7.63;;
83827;SDS011;74656;48.870;12.562;2023-12-20T01:40:50;11.40;;;7.95;;
83827;SDS011;74656;48.870;12.562;2023-12-20T01:43:51;11.48;;;8.18;;
83827;SDS011;74656;48.870;12.562;2023-12-20T01:46:52;15.07;;;9.10;;
83827;SDS011;74656;48.870;12.562;2023-12-20T01:49:53;11.50;;;8.75;;
83827;SDS011;74656;48.870;12.562;2023-12-20T01:52:55;10.85;;;8.38;;
83827;SDS011;74656;48.870;12.562;2023-12-20T01:55:56;13.40;;;8.25;;
83827;SDS011;74656;48.870;12.562;2023-12-20T01:58:59;10.20;;;8.55;;
83827;SDS011;74656;48.870;12.562;2023-12-20T02:02:01;12.57;;;9.50;;
83827;SDS011;74656;48.870;12.562;2023-12-20T02:05:03;12.95;;;9.48;;
83827;SDS011;74656;48.870;12.562;2023-12-20T02:08:04;12.25;;;9.40;;
83827;SDS011;74656;48.870;12.562;2023-12-20T02:11:05;12.70;;;8.77;;
83827;SDS011;74656;48.870;12.562;2023-12-20T02:14:06;11.68;;;10.00;;
83827;SDS011;74656;48.870;12.562;2023-12-20T02:17:07;15.23;;;9.60;;
83827;SDS011;74656;48.870;12.562;2023-12-20T02:20:08;13.48;;;9.27;;
83827;SDS011;74656;48.870;12.562;2023-12-20T02:23:09;14.32;;;9.88;;
83827;SDS011;74656;48.870;12.562;2023-12-20T02:26:10;15.05;;;9.10;;
83827;SDS011;74656;48.870;12.562;2023-12-20T02:29:11;13.05;;;9.05;;
83827;SDS011;74656;48.870;12.562;2023-12-20T02:32:12;15.35;;;9.02;;
83827;SDS011;74656;48.870;12.562;2023-12-20T02:35:13;13.73;;;9.93;;
83827;SDS011;74656;48.870;12.562;2023-12-20T02:38:14;11.43;;;8.38;;
83827;SDS011;74656;48.870;12.562;2023-12-20T02:41:15;13.63;;;9.10;;
83827;SDS011;74656;48.870;12.562;2023-12-20T02:44:16;13.50;;;8.93;;
83827;SDS011;74656;48.870;12.562;2023-12-20T02:47:16;10.90;;;8.10;;
83827;SDS011;74656;48.870;12.562;2023-12-20T02:50:17;14.30;;;8.70;;
83827;SDS011;74656;48.870;12.562;2023-12-20T02:53:18;13.68;;;9.63;;
83827;SDS011;74656;48.870;12.562;2023-12-20T02:56:19;13.85;;;9.20;;
83827;SDS011;74656;48.870;12.562;2023-12-20T02:59:20;11.57;;;8.82;;
83827;SDS011;74656;48.870;12.562;2023-12-20T03:02:21;13.50;;;9.13;;
83827;SDS011;74656;48.870;12.562;2023-12-20T03:05:22;14.80;;;9.95;;
83827;SDS011;74656;48.870;12.562;2023-12-20T03:08:23;14.48;;;9.23;;
83827;SDS011;74656;48.870;12.562;2023-12-20T03:11:27;12.88;;;9.07;;
83827;SDS011;74656;48.870;12.562;2023-12-20T03:14:28;14.10;;;8.65;;
83827;SDS011;74656;48.870;12.562;2023-12-20T03:17:29;11.20;;;8.05;;
83827;SDS011;74656;48.870;12.562;2023-12-20T03:20:30;13.07;;;8.45;;
83827;SDS011;74656;48.870;12.562;2023-12-20T03:23:31;12.68;;;8.35;;
83827;SDS011;74656;48.870;12.562;2023-12-20T03:26:32;10.05;;;7.72;;
83827;SDS011;74656;48.870;12.562;2023-12-20T03:29:33;12.10;;;8.48;;
83827;SDS011;74656;48.870;12.562;2023-12-20T03:32:34;9.52;;;7.82;;
83827;SDS011;74656;48.870;12.562;2023-12-20T03:35:35;10.73;;;8.05;;
83827;SDS011;74656;48.870;12.562;2023-12-20T03:38:36;11.43;;;7.82;;
83827;SDS011;74656;48.870;12.562;2023-12-20T03:41:37;11.80;;;8.80;;
83827;SDS011;74656;48.870;12.562;2023-12-20T03:44:38;13.88;;;8.63;;
83827;SDS011;74656;48.870;12.562;2023-12-20T03:47:39;12.45;;;7.45;;
83827;SDS011;74656;48.870;12.562;2023-12-20T03:50:40;12.18;;;8.27;;
83827;SDS011;74656;48.870;12.562;2023-12-20T03:53:41;12.02;;;8.07;;
83827;SDS011;74656;48.870;12.562;2023-12-20T03:56:42;11.50;;;8.65;;
83827;SDS011;74656;48.870;12.562;2023-12-20T03:59:43;13.65;;;8.15;;
83827;SDS011;74656;48.870;12.562;2023-12-20T04:02:44;11.60;;;8.07;;
83827;SDS011;74656;48.870;12.562;2023-12-20T04:05:45;12.85;;;7.70;;
83827;SDS011;74656;48.870;12.562;2023-12-20T04:08:46;11.23;;;7.85;;
83827;SDS011;74656;48.870;12.562;2023-12-20T04:11:47;15.95;;;7.97;;
83827;SDS011;74656;48.870;12.562;2023-12-20T04:14:48;9.85;;;7.93;;
83827;SDS011;74656;48.870;12.562;2023-12-20T04:17:49;11.48;;;7.45;;
83827;SDS011;74656;48.870;12.562;2023-12-20T04:20:50;10.50;;;8.40;;
83827;SDS011;74656;48.870;12.562;2023-12-20T04:23:51;12.55;;;8.82;;
83827;SDS011;74656;48.870;12.562;2023-12-20T04:26:52;11.35;;;8.60;;
83827;SDS011;74656;48.870;12.562;2023-12-20T04:29:53;12.77;;;8.27;;
83827;SDS011;74656;48.870;12.562;2023-12-20T04:32:54;10.75;;;9.38;;
83827;SDS011;74656;48.870;12.562;2023-12-20T04:35:54;13.20;;;9.63;;
83827;SDS011;74656;48.870;12.562;2023-12-20T04:38:55;12.02;;;8.85;;
83827;SDS011;74656;48.870;12.562;2023-12-20T04:41:56;13.57;;;9.50;;
83827;SDS011;74656;48.870;12.562;2023-12-20T04:44:57;15.07;;;10.98;;
83827;SDS011;74656;48.870;12.562;2023-12-20T04:47:58;16.02;;;10.43;;
83827;SDS011;74656;48.870;12.562;2023-12-20T04:50:59;17.02;;;10.02;;
83827;SDS011;74656;48.870;12.562;2023-12-20T04:54:01;14.38;;;11.02;;
83827;SDS011;74656;48.870;12.562;2023-12-20T04:57:02;17.05;;;12.10;;
83827;SDS011;74656;48.870;12.562;2023-12-20T05:00:03;14.43;;;10.25;;
83827;SDS011;74656;48.870;12.562;2023-12-20T05:03:04;14.30;;;9.23;;
83827;SDS011;74656;48.870;12.562;2023-12-20T05:06:05;11.88;;;8.13;;
83827;SDS011;74656;48.870;12.562;2023-12-20T05:09:06;19.88;;;10.50;;
83827;SDS011;74656;48.870;12.562;2023-12-20T05:12:07;11.75;;;7.85;;
83827;SDS011;74656;48.870;12.562;2023-12-20T05:15:08;10.35;;;7.93;;
83827;SDS011;74656;48.870;12.562;2023-12-20T05:18:09;15.55;;;8.80;;
83827;SDS011;74656;48.870;12.562;2023-12-20T05:21:10;25.98;;;12.52;;
83827;SDS011;74656;48.870;12.562;2023-12-20T05:24:11;18.23;;;10.80;;
83827;SDS011;74656;48.870;12.562;2023-12-20T05:27:12;19.85;;;12.73;;
83827;SDS011;74656;48.870;12.562;2023-12-20T05:30:13;11.40;;;7.80;;
83827;SDS011;74656;48.870;12.562;2023-12-20T05:33:14;9.25;;;6.07;;
83827;SDS011;74656;48.870;12.562;2023-12-20T05:36:15;19.50;;;12.38;;
83827;SDS011;74656;48.870;12.562;2023-12-20T05:39:16;22.08;;;11.65;;
83827;SDS011;74656;48.870;12.562;2023-12-20T05:42:16;17.08;;;12.18;;
83827;SDS011;74656;48.870;12.562;2023-12-20T05:45:17;17.83;;;12.35;;
83827;SDS011;74656;48.870;12.562;2023-12-20T05:48:18;13.57;;;8.98;;
83827;SDS011;74656;48.870;12.562;2023-12-20T05:51:19;22.23;;;14.60;;
83827;SDS011;74656;48.870;12.562;2023-12-20T05:54:20;10.90;;;7.65;;
83827;SDS011;74656;48.870;12.562;2023-12-20T05:57:21;9.55;;;7.72;;
83827;SDS011;74656;48.870;12.562;2023-12-20T06:00:22;10.35;;;7.97;;
83827;SDS011;74656;48.870;12.562;2023-12-20T06:03:23;9.40;;;5.53;;
83827;SDS011;74656;48.870;12.562;2023-12-20T06:06:24;7.60;;;5.70;;
83827;SDS011;74656;48.870;12.562;2023-12-20T06:09:28;6.53;;;4.78;;
83827;SDS011;74656;48.870;12.562;2023-12-20T06:12:29;7.00;;;4.93;;
83827;SDS011;74656;48.870;12.562;2023-12-20T06:15:30;7.93;;;4.90;;
83827;SDS011;74656;48.870;12.562;2023-12-20T06:18:31;7.03;;;4.45;;
83827;SDS011;74656;48.870;12.562;2023-12-20T06:21:32;7.32;;;4.45;;
83827;SDS011;74656;48.870;12.562;2023-12-20T06:24:33;7.18;;;4.18;;
83827;SDS011;74656;48.870;12.562;2023-12-20T06:27:34;6.45;;;4.22;;
83827;SDS011;74656;48.870;12.562;2023-12-20T06:30:35;9.43;;;4.97;;
83827;SDS011;74656;48.870;12.562;2023-12-20T06:33:36;10.00;;;4.45;;
83827;SDS011;74656;48.870;12.562;2023-12-20T06:36:37;10.25;;;5.38;;
83827;SDS011;74656;48.870;12.562;2023-12-20T06:39:38;10.32;;;5.95;;
83827;SDS011;74656;48.870;12.562;2023-12-20T06:42:39;7.80;;;5.57;;
83827;SDS011;74656;48.870;12.562;2023-12-20T06:45:40;12.73;;;7.28;;
83827;SDS011;74656;48.870;12.562;2023-12-20T06:48:41;8.20;;;4.80;;
83827;SDS011;74656;48.870;12.562;2023-12-20T06:51:42;8.85;;;6.30;;
83827;SDS011;74656;48.870;12.562;2023-12-20T06:54:42;10.93;;;4.10;;
83827;SDS011;74656;48.870;12.562;2023-12-20T06:57:44;8.77;;;4.13;;
83827;SDS011;74656;48.870;12.562;2023-12-20T07:00:45;13.25;;;5.70;;
83827;SDS011;74656;48.870;12.562;2023-12-20T07:03:46;9.32;;;4.97;;
83827;SDS011;74656;48.870;12.562;2023-12-20T07:06:47;6.82;;;4.20;;
83827;SDS011;74656;48.870;12.562;2023-12-20T07:09:48;7.28;;;4.72;;
83827;SDS011;74656;48.870;12.562;2023-12-20T07:12:49;6.38;;;4.50;;
83827;SDS011;74656;48.870;12.562;2023-12-20T07:15:50;7.78;;;5.50;;
83827;SDS011;74656;48.870;12.562;2023-12-20T07:18:51;11.25;;;7.80;;
83827;SDS011;74656;48.870;12.562;2023-12-20T07:21:52;8.35;;;5.95;;
83827;SDS011;74656;48.870;12.562;2023-12-20T07:24:53;6.95;;;5.28;;
83827;SDS011;74656;48.870;12.562;2023-12-20T07:27:55;14.70;;;4.90;;
83827;SDS011;74656;48.870;12.562;2023-12-20T07:30:56;6.18;;;5.00;;
83827;SDS011;74656;48.870;12.562;2023-12-20T07:33:57;6.93;;;4.10;;
83827;SDS011;74656;48.870;12.562;2023-12-20T07:36:58;7.35;;;4.40;;
83827;SDS011;74656;48.870;12.562;2023-12-20T07:39:59;6.35;;;4.82;;
83827;SDS011;74656;48.870;12.562;2023-12-20T07:43:00;6.07;;;4.05;;
83827;SDS011;74656;48.870;12.562;2023-12-20T07:46:05;5.90;;;4.20;;
83827;SDS011;74656;48.870;12.562;2023-12-20T07:49:06;6.13;;;4.53;;
83827;SDS011;74656;48.870;12.562;2023-12-20T07:52:07;6.57;;;4.32;;
83827;SDS011;74656;48.870;12.562;2023-12-20T07:55:08;9.07;;;4.72;;
83827;SDS011;74656;48.870;12.562;2023-12-20T07:58:09;4.55;;;3.65;;
83827;SDS011;74656;48.870;12.562;2023-12-20T08:01:10;7.30;;;4.45;;
83827;SDS011;74656;48.870;12.562;2023-12-20T08:04:11;5.57;;;3.88;;
83827;SDS011;74656;48.870;12.562;2023-12-20T08:07:12;5.00;;;3.78;;
83827;SDS011;74656;48.870;12.562;2023-12-20T08:10:13;5.60;;;4.28;;
83827;SDS011;74656;48.870;12.562;2023-12-20T08:13:14;14.38;;;7.60;;
83827;SDS011;74656;48.870;12.562;2023-12-20T08:16:15;40.83;;;20.73;;
83827;SDS011;74656;48.870;12.562;2023-12-20T08:19:16;6.40;;;4.18;;
83827;SDS011;74656;48.870;12.562;2023-12-20T08:22:17;6.57;;;4.10;;
83827;SDS011;74656;48.870;12.562;2023-12-20T08:25:18;5.32;;;3.25;;
83827;SDS011;74656;48.870;12.562;2023-12-20T08:28:19;3.50;;;2.90;;
83827;SDS011;74656;48.870;12.562;2023-12-20T08:31:20;4.13;;;2.95;;
83827;SDS011;74656;48.870;12.562;2023-12-20T08:34:21;5.07;;;3.25;;
83827;SDS011;74656;48.870;12.562;2023-12-20T08:37:22;5.10;;;3.35;;
83827;SDS011;74656;48.870;12.562;2023-12-20T08:40:23;4.38;;;3.13;;
83827;SDS011;74656;48.870;12.562;2023-12-20T08:43:24;5.35;;;3.70;;
83827;SDS011;74656;48.870;12.562;2023-12-20T08:46:25;4.18;;;3.35;;
83827;SDS011;74656;48.870;12.562;2023-12-20T08:49:26;4.32;;;3.28;;
83827;SDS011;74656;48.870;12.562;2023-12-20T08:52:27;5.65;;;3.53;;
83827;SDS011;74656;48.870;12.562;2023-12-20T08:55:28;6.95;;;3.63;;
83827;SDS011;74656;48.870;12.562;2023-12-20T08:58:29;6.97;;;4.78;;
83827;SDS011;74656;48.870;12.562;2023-12-20T09:01:30;7.50;;;4.10;;
83827;SDS011;74656;48.870;12.562;2023-12-20T09:04:31;6.20;;;4.18;;
83827;SDS011;74656;48.870;12.562;2023-12-20T09:07:32;4.85;;;3.08;;
83827;SDS011;74656;48.870;12.562;2023-12-20T09:10:33;4.13;;;2.90;;
83827;SDS011;74656;48.870;12.562;2023-12-20T09:13:34;4.13;;;2.90;;
83827;SDS011;74656;48.870;12.562;2023-12-20T09:16:35;3.28;;;2.28;;
83827;SDS011;74656;48.870;12.562;2023-12-20T09:19:36;4.50;;;2.92;;
83827;SDS011;74656;48.870;12.562;2023-12-20T09:22:37;4.45;;;2.78;;
83827;SDS011;74656;48.870;12.562;2023-12-20T09:25:38;3.72;;;2.53;;
83827;SDS011;74656;48.870;12.562;2023-12-20T09:28:38;3.53;;;2.22;;
83827;SDS011;74656;48.870;12.562;2023-12-20T09:31:39;6.78;;;2.80;;
83827;SDS011;74656;48.870;12.562;2023-12-20T09:34:40;3.15;;;2.10;;
83827;SDS011;74656;48.870;12.562;2023-12-20T09:37:41;3.30;;;2.45;;
83827;SDS011;74656;48.870;12.562;2023-12-20T09:40:42;4.20;;;2.88;;
83827;SDS011;74656;48.870;12.562;2023-12-20T09:43:43;4.07;;;3.03;;
83827;SDS011;74656;48.870;12.562;2023-12-20T09:46:45;3.15;;;2.25;;
83827;SDS011;74656;48.870;12.562;2023-12-20T09:49:50;6.28;;;3.97;;
83827;SDS011;74656;48.870;12.562;2023-12-20T09:52:52;3.95;;;2.33;;
83827;SDS011;74656;48.870;12.562;2023-12-20T09:55:53;2.42;;;2.15;;
83827;SDS011;74656;48.870;12.562;2023-12-20T09:58:54;5.80;;;3.78;;
83827;SDS011;74656;48.870;12.562;2023-12-20T10:01:55;4.93;;;3.70;;
83827;SDS011;74656;48.870;12.562;2023-12-20T10:04:56;3.10;;;2.40;;
83827;SDS011;74656;48.870;12.562;2023-12-20T10:07:57;2.95;;;1.98;;
83827;SDS011;74656;48.870;12.562;2023-12-20T10:10:59;3.85;;;2.58;;
83827;SDS011;74656;48.870;12.562;2023-12-20T10:14:00;3.42;;;2.17;;
83827;SDS011;74656;48.870;12.562;2023-12-20T10:17:02;4.07;;;3.55;;
83827;SDS011;74656;48.870;12.562;2023-12-20T10:20:03;4.93;;;3.83;;
83827;SDS011;74656;48.870;12.562;2023-12-20T10:23:04;4.55;;;2.60;;
83827;SDS011;74656;48.870;12.562;2023-12-20T10:26:05;12.68;;;7.38;;
83827;SDS011;74656;48.870;12.562;2023-12-20T10:29:06;15.50;;;7.13;;
83827;SDS011;74656;48.870;12.562;2023-12-20T10:32:24;13.23;;;6.78;;
83827;SDS011;74656;48.870;12.562;2023-12-20T10:35:25;5.78;;;3.63;;
83827;SDS011;74656;48.870;12.562;2023-12-20T10:38:26;4.75;;;3.03;;
83827;SDS011;74656;48.870;12.562;2023-12-20T10:41:27;3.58;;;2.58;;
83827;SDS011;74656;48.870;12.562;2023-12-20T10:44:28;3.50;;;2.22;;
83827;SDS011;74656;48.870;12.562;2023-12-20T10:47:30;6.35;;;3.92;;
83827;SDS011;74656;48.870;12.562;2023-12-20T10:50:31;5.10;;;3.03;;
83827;SDS011;74656;48.870;12.562;2023-12-20T10:53:32;3.17;;;2.58;;
83827;SDS011;74656;48.870;12.562;2023-12-20T10:56:34;3.10;;;2.63;;
83827;SDS011;74656;48.870;12.562;2023-12-20T10:59:37;2.75;;;2.33;;
83827;SDS011;74656;48.870;12.562;2023-12-20T11:02:39;4.43;;;4.03;;
83827;SDS011;74656;48.870;12.562;2023-12-20T11:05:50;4.22;;;3.63;;
83827;SDS011;74656;48.870;12.562;2023-12-20T11:12:13;3.80;;;1.95;;
83827;SDS011;74656;48.870;12.562;2023-12-20T11:15:15;3.88;;;1.80;;
83827;SDS011;74656;48.870;12.562;2023-12-20T11:18:17;5.63;;;2.15;;
83827;SDS011;74656;48.870;12.562;2023-12-20T11:21:17;2.30;;;2.10;;
83827;SDS011;74656;48.870;12.562;2023-12-20T11:24:21;2.50;;;1.92;;
83827;SDS011;74656;48.870;12.562;2023-12-20T11:27:22;2.55;;;1.92;;
83827;SDS011;74656;48.870;12.562;2023-12-20T11:30:24;4.05;;;3.13;;
83827;SDS011;74656;48.870;12.562;2023-12-20T11:33:26;2.92;;;2.00;;
83827;SDS011;74656;48.870;12.562;2023-12-20T11:36:27;1.85;;;1.58;;
83827;SDS011;74656;48.870;12.562;2023-12-20T11:39:33;2.53;;;1.65;;
83827;SDS011;74656;48.870;12.562;2023-12-20T11:42:43;2.55;;;1.88;;
83827;SDS011;74656;48.870;12.562;2023-12-20T11:45:51;2.85;;;1.67;;
83827;SDS011;74656;48.870;12.562;2023-12-20T11:48:52;2.35;;;1.40;;
83827;SDS011;74656;48.870;12.562;2023-12-20T11:51:53;2.35;;;1.75;;
83827;SDS011;74656;48.870;12.562;2023-12-20T11:54:54;4.40;;;2.80;;
83827;SDS011;74656;48.870;12.562;2023-12-20T11:57:54;1.70;;;1.50;;
83827;SDS011;74656;48.870;12.562;2023-12-20T12:00:56;4.43;;;1.80;;
83827;SDS011;74656;48.870;12.562;2023-12-20T12:04:04;1.92;;;1.60;;
83827;SDS011;74656;48.870;12.562;2023-12-20T12:07:05;3.65;;;1.52;;
83827;SDS011;74656;48.870;12.562;2023-12-20T12:10:06;1.98;;;1.33;;
83827;SDS011;74656;48.870;12.562;2023-12-20T12:13:07;2.15;;;1.95;;
83827;SDS011;74656;48.870;12.562;2023-12-20T12:16:08;1.70;;;1.60;;
83827;SDS011;74656;48.870;12.562;2023-12-20T12:19:20;2.15;;;1.38;;
83827;SDS011;74656;48.870;12.562;2023-12-20T12:22:21;1.75;;;1.42;;
83827;SDS011;74656;48.870;12.562;2023-12-20T12:25:22;2.13;;;1.42;;
83827;SDS011;74656;48.870;12.562;2023-12-20T12:28:25;1.88;;;1.23;;
83827;SDS011;74656;48.870;12.562;2023-12-20T12:31:26;5.20;;;2.83;;
83827;SDS011;74656;48.870;12.562;2023-12-20T12:34:27;1.35;;;1.10;;
83827;SDS011;74656;48.870;12.562;2023-12-20T12:37:28;2.40;;;1.40;;
83827;SDS011;74656;48.870;12.562;2023-12-20T12:40:29;1.75;;;1.58;;
83827;SDS011;74656;48.870;12.562;2023-12-20T12:43:35;2.72;;;1.50;;
83827;SDS011;74656;48.870;12.562;2023-12-20T12:46:36;2.35;;;1.58;;
83827;SDS011;74656;48.870;12.562;2023-12-20T12:49:37;2.58;;;1.60;;
83827;SDS011;74656;48.870;12.562;2023-12-20T12:52:38;2.92;;;1.50;;
83827;SDS011;74656;48.870;12.562;2023-12-20T12:55:39;2.67;;;1.58;;
83827;SDS011;74656;48.870;12.562;2023-12-20T12:58:40;3.47;;;1.60;;
83827;SDS011;74656;48.870;12.562;2023-12-20T13:01:41;3.03;;;1.30;;
83827;SDS011;74656;48.870;12.562;2023-12-20T13:04:42;3.00;;;1.50;;
83827;SDS011;74656;48.870;12.562;2023-12-20T13:07:43;3.10;;;1.70;;
83827;SDS011;74656;48.870;12.562;2023-12-20T13:10:44;1.65;;;1.50;;
83827;SDS011;74656;48.870;12.562;2023-12-20T13:13:45;2.17;;;1.50;;
83827;SDS011;74656;48.870;12.562;2023-12-20T13:16:46;4.45;;;2.47;;
83827;SDS011;74656;48.870;12.562;2023-12-20T13:19:47;2.85;;;1.52;;
83827;SDS011;74656;48.870;12.562;2023-12-20T13:22:48;1.92;;;1.40;;
83827;SDS011;74656;48.870;12.562;2023-12-20T13:25:49;1.10;;;1.00;;
83827;SDS011;74656;48.870;12.562;2023-12-20T13:28:50;2.13;;;1.50;;
83827;SDS011;74656;48.870;12.562;2023-12-20T13:31:51;2.30;;;1.40;;
83827;SDS011;74656;48.870;12.562;2023-12-20T13:34:52;1.58;;;1.23;;
83827;SDS011;74656;48.870;12.562;2023-12-20T13:37:53;2.47;;;1.55;;
83827;SDS011;74656;48.870;12.562;2023-12-20T13:40:54;1.40;;;1.13;;
83827;SDS011;74656;48.870;12.562;2023-12-20T13:43:55;3.05;;;1.38;;
83827;SDS011;74656;48.870;12.562;2023-12-20T13:46:55;3.17;;;1.38;;
83827;SDS011;74656;48.870;12.562;2023-12-20T13:49:56;2.30;;;1.45;;
83827;SDS011;74656;48.870;12.562;2023-12-20T13:52:57;4.10;;;2.00;;
83827;SDS011;74656;48.870;12.562;2023-12-20T13:55:58;2.00;;;1.50;;
83827;SDS011;74656;48.870;12.562;2023-12-20T13:58:59;2.72;;;1.55;;
83827;SDS011;74656;48.870;12.562;2023-12-20T14:02:00;1.60;;;1.20;;
83827;SDS011;74656;48.870;12.562;2023-12-20T14:05:01;2.88;;;1.23;;
83827;SDS011;74656;48.870;12.562;2023-12-20T14:08:02;4.30;;;1.92;;
83827;SDS011;74656;48.870;12.562;2023-12-20T14:11:03;5.72;;;1.60;;
83827;SDS011;74656;48.870;12.562;2023-12-20T14:14:05;1.50;;;1.23;;
83827;SDS011;74656;48.870;12.562;2023-12-20T14:17:06;3.20;;;1.08;;
83827;SDS011;74656;48.870;12.562;2023-12-20T14:20:07;1.73;;;1.30;;
83827;SDS011;74656;48.870;12.562;2023-12-20T14:23:08;1.90;;;1.65;;
83827;SDS011;74656;48.870;12.562;2023-12-20T14:26:09;2.10;;;1.35;;
83827;SDS011;74656;48.870;12.562;2023-12-20T14:29:10;2.83;;;1.38;;
83827;SDS011;74656;48.870;12.562;2023-12-20T14:32:11;4.28;;;2.60;;
83827;SDS011;74656;48.870;12.562;2023-12-20T14:35:12;4.53;;;1.38;;
83827;SDS011;74656;48.870;12.562;2023-12-20T14:38:13;1.73;;;1.45;;
83827;SDS011;74656;48.870;12.562;2023-12-20T14:41:14;4.18;;;1.50;;
83827;SDS011;74656;48.870;12.562;2023-12-20T14:44:14;3.22;;;1.60;;
83827;SDS011;74656;48.870;12.562;2023-12-20T14:47:15;3.22;;;1.80;;
83827;SDS011;74656;48.870;12.562;2023-12-20T14:50:16;2.60;;;1.75;;
83827;SDS011;74656;48.870;12.562;2023-12-20T14:53:17;3.55;;;2.20;;
83827;SDS011;74656;48.870;12.562;2023-12-20T14:56:18;3.05;;;1.83;;
83827;SDS011;74656;48.870;12.562;2023-12-20T14:59:19;2.95;;;1.88;;
83827;SDS011;74656;48.870;12.562;2023-12-20T15:02:20;2.65;;;2.05;;
83827;SDS011;74656;48.870;12.562;2023-12-20T15:05:21;3.35;;;1.67;;
83827;SDS011;74656;48.870;12.562;2023-12-20T15:08:22;3.05;;;1.98;;
83827;SDS011;74656;48.870;12.562;2023-12-20T15:11:23;4.45;;;1.50;;
83827;SDS011;74656;48.870;12.562;2023-12-20T15:14:25;2.55;;;1.40;;
83827;SDS011;74656;48.870;12.562;2023-12-20T15:17:26;3.00;;;2.00;;
83827;SDS011;74656;48.870;12.562;2023-12-20T15:20:27;4.63;;;1.75;;
83827;SDS011;74656;48.870;12.562;2023-12-20T15:23:28;3.60;;;2.00;;
83827;SDS011;74656;48.870;12.562;2023-12-20T15:26:29;7.97;;;1.83;;
83827;SDS011;74656;48.870;12.562;2023-12-20T15:29:30;2.65;;;1.70;;
83827;SDS011;74656;48.870;12.562;2023-12-20T15:32:31;2.65;;;2.00;;
83827;SDS011;74656;48.870;12.562;2023-12-20T15:35:32;3.03;;;1.70;;
83827;SDS011;74656;48.870;12.562;2023-12-20T15:38:33;3.35;;;1.73;;
83827;SDS011;74656;48.870;12.562;2023-12-20T15:41:34;4.82;;;2.33;;
83827;SDS011;74656;48.870;12.562;2023-12-20T15:44:35;2.60;;;1.63;;
83827;SDS011;74656;48.870;12.562;2023-12-20T15:47:36;4.28;;;1.70;;
83827;SDS011;74656;48.870;12.562;2023-12-20T15:50:37;3.75;;;1.65;;
83827;SDS011;74656;48.870;12.562;2023-12-20T15:53:38;3.25;;;1.42;;
83827;SDS011;74656;48.870;12.562;2023-12-20T15:56:39;2.63;;;1.67;;
83827;SDS011;74656;48.870;12.562;2023-12-20T15:59:40;1.77;;;1.33;;
83827;SDS011;74656;48.870;12.562;2023-12-20T16:02:41;2.35;;;1.35;;
83827;SDS011;74656;48.870;12.562;2023-12-20T16:05:41;3.10;;;2.25;;
83827;SDS011;74656;48.870;12.562;2023-12-20T16:08:43;2.90;;;1.85;;
83827;SDS011;74656;48.870;12.562;2023-12-20T16:11:44;1.92;;;1.42;;
83827;SDS011;74656;48.870;12.562;2023-12-20T16:14:45;2.30;;;1.83;;
83827;SDS011;74656;48.870;12.562;2023-12-20T16:17:45;3.50;;;1.73;;
83827;SDS011;74656;48.870;12.562;2023-12-20T16:20:46;3.30;;;1.90;;
83827;SDS011;74656;48.870;12.562;2023-12-20T16:23:47;5.72;;;1.98;;
83827;SDS011;74656;48.870;12.562;2023-12-20T16:26:48;3.60;;;1.90;;
83827;SDS011;74656;48.870;12.562;2023-12-20T16:29:49;4.55;;;2.08;;
83827;SDS011;74656;48.870;12.562;2023-12-20T16:32:50;3.88;;;2.08;;
83827;SDS011;74656;48.870;12.562;2023-12-20T16:35:51;2.58;;;1.80;;
83827;SDS011;74656;48.870;12.562;2023-12-20T16:38:52;2.30;;;2.10;;
83827;SDS011;74656;48.870;12.562;2023-12-20T16:41:53;3.75;;;2.33;;
83827;SDS011;74656;48.870;12.562;2023-12-20T16:44:54;2.45;;;1.95;;
83827;SDS011;74656;48.870;12.562;2023-12-20T16:47:55;5.05;;;2.33;;
83827;SDS011;74656;48.870;12.562;2023-12-20T16:50:56;4.28;;;2.55;;
83827;SDS011;74656;48.870;12.562;2023-12-20T16:53:57;2.75;;;1.38;;
83827;SDS011;74656;48.870;12.562;2023-12-20T16:56:58;2.72;;;1.98;;
83827;SDS011;74656;48.870;12.562;2023-12-20T16:59:59;4.93;;;2.92;;
83827;SDS011;74656;48.870;12.562;2023-12-20T17:03:00;6.38;;;1.92;;
83827;SDS011;74656;48.870;12.562;2023-12-20T17:06:01;3.47;;;1.63;;
83827;SDS011;74656;48.870;12.562;2023-12-20T17:09:02;5.18;;;1.80;;
83827;SDS011;74656;48.870;12.562;2023-12-20T17:12:03;3.65;;;2.13;;
83827;SDS011;74656;48.870;12.562;2023-12-20T17:15:04;4.18;;;2.10;;
83827;SDS011;74656;48.870;12.562;2023-12-20T17:18:06;2.78;;;1.77;;
83827;SDS011;74656;48.870;12.562;2023-12-20T17:21:07;8.73;;;2.75;;
83827;SDS011;74656;48.870;12.562;2023-12-20T17:24:07;2.50;;;1.40;;
83827;SDS011;74656;48.870;12.562;2023-12-20T17:27:08;4.50;;;1.73;;
83827;SDS011;74656;48.870;12.562;2023-12-20T17:30:09;5.03;;;1.45;;
83827;SDS011;74656;48.870;12.562;2023-12-20T17:33:10;2.72;;;1.48;;
83827;SDS011;74656;48.870;12.562;2023-12-20T17:36:11;1.70;;;1.27;;
83827;SDS011;74656;48.870;12.562;2023-12-20T17:39:12;2.75;;;1.60;;
83827;SDS011;74656;48.870;12.562;2023-12-20T17:42:13;3.72;;;1.67;;
83827;SDS011;74656;48.870;12.562;2023-12-20T17:45:14;3.83;;;2.25;;
83827;SDS011;74656;48.870;12.562;2023-12-20T17:48:15;3.47;;;1.40;;
83827;SDS011;74656;48.870;12.562;2023-12-20T17:51:16;1.98;;;1.40;;